sensor_id;sensor_type;location;lat;lon;timestamp;pressure;altitude;pressure_sealevel;temperature
9119;BMP180;4594;50.994;7.126;2023-06-14T00:01:45;100426.00;;;24.10
9119;BMP180;4594;50.994;7.126;2023-06-14T00:04:12;100427.00;;;24.00
9119;BMP180;4594;50.994;7.126;2023-06-14T00:06:39;100422.00;;;24.00
9119;BMP180;4594;50.994;7.126;2023-06-14T00:09:05;100425.00;;;24.00
9119;BMP180;4594;50.994;7.126;2023-06-14T00:11:34;100424.00;;;23.90
9119;BMP180;4594;50.994;7.126;2023-06-14T00:13:59;100430.00;;;23.90
9119;BMP180;4594;50.994;7.126;2023-06-14T00:16:25;100427.00;;;23.90
9119;BMP180;4594;50.994;7.126;2023-06-14T00:18:51;100432.00;;;23.90
9119;BMP180;4594;50.994;7.126;2023-06-14T00:21:19;100436.00;;;23.80
9119;BMP180;4594;50.994;7.126;2023-06-14T00:23:46;100442.00;;;23.80
9119;BMP180;4594;50.994;7.126;2023-06-14T00:26:11;100440.00;;;23.80
9119;BMP180;4594;50.994;7.126;2023-06-14T00:28:37;100439.00;;;23.70
9119;BMP180;4594;50.994;7.126;2023-06-14T00:31:02;100447.00;;;23.70
9119;BMP180;4594;50.994;7.126;2023-06-14T00:33:28;100438.00;;;23.70
9119;BMP180;4594;50.994;7.126;2023-06-14T00:35:54;100437.00;;;23.60
9119;BMP180;4594;50.994;7.126;2023-06-14T00:38:20;100437.00;;;23.60
9119;BMP180;4594;50.994;7.126;2023-06-14T00:40:46;100443.00;;;23.60
9119;BMP180;4594;50.994;7.126;2023-06-14T00:43:12;100451.00;;;23.60
9119;BMP180;4594;50.994;7.126;2023-06-14T00:45:38;100451.00;;;23.50
9119;BMP180;4594;50.994;7.126;2023-06-14T00:48:05;100447.00;;;23.50
9119;BMP180;4594;50.994;7.126;2023-06-14T00:50:32;100450.00;;;23.50
9119;BMP180;4594;50.994;7.126;2023-06-14T00:53:00;100445.00;;;23.40
9119;BMP180;4594;50.994;7.126;2023-06-14T00:55:27;100456.00;;;23.40
9119;BMP180;4594;50.994;7.126;2023-06-14T00:57:54;100459.00;;;23.40
9119;BMP180;4594;50.994;7.126;2023-06-14T01:00:21;100465.00;;;23.30
9119;BMP180;4594;50.994;7.126;2023-06-14T01:02:46;100464.00;;;23.30
9119;BMP180;4594;50.994;7.126;2023-06-14T01:05:14;100463.00;;;23.30
9119;BMP180;4594;50.994;7.126;2023-06-14T01:11:03;100468.00;;;23.20
9119;BMP180;4594;50.994;7.126;2023-06-14T01:13:35;100469.00;;;23.10
9119;BMP180;4594;50.994;7.126;2023-06-14T01:16:02;100472.00;;;23.10
9119;BMP180;4594;50.994;7.126;2023-06-14T01:18:29;100466.00;;;23.00
9119;BMP180;4594;50.994;7.126;2023-06-14T01:20:56;100472.00;;;23.00
9119;BMP180;4594;50.994;7.126;2023-06-14T01:23:23;100470.00;;;23.00
9119;BMP180;4594;50.994;7.126;2023-06-14T01:25:50;100466.00;;;23.00
9119;BMP180;4594;50.994;7.126;2023-06-14T01:28:21;100466.00;;;23.00
9119;BMP180;4594;50.994;7.126;2023-06-14T01:30:52;100459.00;;;22.90
9119;BMP180;4594;50.994;7.126;2023-06-14T01:33:26;100459.00;;;22.90
9119;BMP180;4594;50.994;7.126;2023-06-14T01:35:54;100459.00;;;22.90
9119;BMP180;4594;50.994;7.126;2023-06-14T01:38:25;100464.00;;;22.90
9119;BMP180;4594;50.994;7.126;2023-06-14T01:40:54;100464.00;;;22.90
9119;BMP180;4594;50.994;7.126;2023-06-14T01:43:22;100464.00;;;22.90
9119;BMP180;4594;50.994;7.126;2023-06-14T01:45:50;100449.00;;;22.80
9119;BMP180;4594;50.994;7.126;2023-06-14T01:48:17;100466.00;;;22.80
9119;BMP180;4594;50.994;7.126;2023-06-14T01:50:43;100457.00;;;22.80
9119;BMP180;4594;50.994;7.126;2023-06-14T01:53:10;100465.00;;;22.80
9119;BMP180;4594;50.994;7.126;2023-06-14T01:55:36;100464.00;;;22.80
9119;BMP180;4594;50.994;7.126;2023-06-14T01:58:10;100463.00;;;22.80
9119;BMP180;4594;50.994;7.126;2023-06-14T02:00:36;100462.00;;;22.80
9119;BMP180;4594;50.994;7.126;2023-06-14T02:03:02;100458.00;;;22.80
9119;BMP180;4594;50.994;7.126;2023-06-14T02:05:30;100457.00;;;22.70
9119;BMP180;4594;50.994;7.126;2023-06-14T02:07:55;100452.00;;;22.70
9119;BMP180;4594;50.994;7.126;2023-06-14T02:10:21;100450.00;;;22.70
9119;BMP180;4594;50.994;7.126;2023-06-14T02:12:47;100454.00;;;22.70
9119;BMP180;4594;50.994;7.126;2023-06-14T02:15:13;100456.00;;;22.70
9119;BMP180;4594;50.994;7.126;2023-06-14T02:17:43;100454.00;;;22.70
9119;BMP180;4594;50.994;7.126;2023-06-14T02:20:09;100453.00;;;22.70
9119;BMP180;4594;50.994;7.126;2023-06-14T02:22:35;100450.00;;;22.60
9119;BMP180;4594;50.994;7.126;2023-06-14T02:25:01;100460.00;;;22.60
9119;BMP180;4594;50.994;7.126;2023-06-14T02:27:26;100464.00;;;22.60
9119;BMP180;4594;50.994;7.126;2023-06-14T02:29:52;100459.00;;;22.60
9119;BMP180;4594;50.994;7.126;2023-06-14T02:32:18;100471.00;;;22.60
9119;BMP180;4594;50.994;7.126;2023-06-14T02:34:43;100459.00;;;22.50
9119;BMP180;4594;50.994;7.126;2023-06-14T02:37:09;100471.00;;;22.50
9119;BMP180;4594;50.994;7.126;2023-06-14T02:39:36;100461.00;;;22.50
9119;BMP180;4594;50.994;7.126;2023-06-14T02:42:02;100465.00;;;22.50
9119;BMP180;4594;50.994;7.126;2023-06-14T02:44:29;100471.00;;;22.50
9119;BMP180;4594;50.994;7.126;2023-06-14T02:46:55;100468.00;;;22.40
9119;BMP180;4594;50.994;7.126;2023-06-14T02:49:22;100470.00;;;22.40
9119;BMP180;4594;50.994;7.126;2023-06-14T02:51:49;100472.00;;;22.40
9119;BMP180;4594;50.994;7.126;2023-06-14T02:54:15;100477.00;;;22.40
9119;BMP180;4594;50.994;7.126;2023-06-14T02:56:41;100484.00;;;22.40
9119;BMP180;4594;50.994;7.126;2023-06-14T02:59:07;100482.00;;;22.30
9119;BMP180;4594;50.994;7.126;2023-06-14T03:01:34;100481.00;;;22.30
9119;BMP180;4594;50.994;7.126;2023-06-14T03:04:03;100494.00;;;22.20
9119;BMP180;4594;50.994;7.126;2023-06-14T03:06:30;100488.00;;;22.20
9119;BMP180;4594;50.994;7.126;2023-06-14T03:08:57;100486.00;;;22.20
9119;BMP180;4594;50.994;7.126;2023-06-14T03:11:29;100490.00;;;22.10
9119;BMP180;4594;50.994;7.126;2023-06-14T03:13:55;100496.00;;;22.10
9119;BMP180;4594;50.994;7.126;2023-06-14T03:16:22;100493.00;;;22.00
9119;BMP180;4594;50.994;7.126;2023-06-14T03:18:51;100493.00;;;22.00
9119;BMP180;4594;50.994;7.126;2023-06-14T03:21:18;100492.00;;;21.90
9119;BMP180;4594;50.994;7.126;2023-06-14T03:23:46;100491.00;;;21.90
9119;BMP180;4594;50.994;7.126;2023-06-14T03:26:13;100494.00;;;21.90
9119;BMP180;4594;50.994;7.126;2023-06-14T03:28:46;100505.00;;;21.80
9119;BMP180;4594;50.994;7.126;2023-06-14T03:31:12;100507.00;;;21.80
9119;BMP180;4594;50.994;7.126;2023-06-14T03:33:39;100501.00;;;21.70
9119;BMP180;4594;50.994;7.126;2023-06-14T03:36:06;100504.00;;;21.70
9119;BMP180;4594;50.994;7.126;2023-06-14T03:38:34;100503.00;;;21.60
9119;BMP180;4594;50.994;7.126;2023-06-14T03:41:00;100505.00;;;21.60
9119;BMP180;4594;50.994;7.126;2023-06-14T03:43:27;100509.00;;;21.50
9119;BMP180;4594;50.994;7.126;2023-06-14T03:45:52;100517.00;;;21.50
9119;BMP180;4594;50.994;7.126;2023-06-14T03:48:18;100513.00;;;21.50
9119;BMP180;4594;50.994;7.126;2023-06-14T03:50:44;100517.00;;;21.40
9119;BMP180;4594;50.994;7.126;2023-06-14T03:53:10;100518.00;;;21.40
9119;BMP180;4594;50.994;7.126;2023-06-14T03:55:36;100522.00;;;21.40
9119;BMP180;4594;50.994;7.126;2023-06-14T03:58:03;100527.00;;;21.30
9119;BMP180;4594;50.994;7.126;2023-06-14T04:00:29;100527.00;;;21.30
9119;BMP180;4594;50.994;7.126;2023-06-14T04:02:55;100524.00;;;21.30
9119;BMP180;4594;50.994;7.126;2023-06-14T04:05:21;100527.00;;;21.30
9119;BMP180;4594;50.994;7.126;2023-06-14T04:07:46;100535.00;;;21.30
9119;BMP180;4594;50.994;7.126;2023-06-14T04:10:15;100535.00;;;21.20
9119;BMP180;4594;50.994;7.126;2023-06-14T04:12:42;100536.00;;;21.20
9119;BMP180;4594;50.994;7.126;2023-06-14T04:15:09;100542.00;;;21.20
9119;BMP180;4594;50.994;7.126;2023-06-14T04:17:36;100537.00;;;21.20
9119;BMP180;4594;50.994;7.126;2023-06-14T04:20:03;100546.00;;;21.20
9119;BMP180;4594;50.994;7.126;2023-06-14T04:22:30;100542.00;;;21.20
9119;BMP180;4594;50.994;7.126;2023-06-14T04:24:57;100545.00;;;21.20
9119;BMP180;4594;50.994;7.126;2023-06-14T04:27:27;100552.00;;;21.20
9119;BMP180;4594;50.994;7.126;2023-06-14T04:29:54;100554.00;;;21.20
9119;BMP180;4594;50.994;7.126;2023-06-14T04:32:28;100560.00;;;21.20
9119;BMP180;4594;50.994;7.126;2023-06-14T04:34:57;100562.00;;;21.20
9119;BMP180;4594;50.994;7.126;2023-06-14T04:37:25;100554.00;;;21.20
9119;BMP180;4594;50.994;7.126;2023-06-14T04:39:54;100556.00;;;21.20
9119;BMP180;4594;50.994;7.126;2023-06-14T04:42:24;100567.00;;;21.30
9119;BMP180;4594;50.994;7.126;2023-06-14T04:44:51;100573.00;;;21.50
9119;BMP180;4594;50.994;7.126;2023-06-14T04:47:20;100566.00;;;21.60
9119;BMP180;4594;50.994;7.126;2023-06-14T04:49:46;100567.00;;;21.80
9119;BMP180;4594;50.994;7.126;2023-06-14T04:52:13;100583.00;;;22.00
9119;BMP180;4594;50.994;7.126;2023-06-14T04:54:40;100581.00;;;22.10
9119;BMP180;4594;50.994;7.126;2023-06-14T04:57:09;100578.00;;;22.30
9119;BMP180;4594;50.994;7.126;2023-06-14T04:59:40;100579.00;;;22.50
9119;BMP180;4594;50.994;7.126;2023-06-14T05:02:06;100592.00;;;22.80
9119;BMP180;4594;50.994;7.126;2023-06-14T05:04:32;100589.00;;;23.10
9119;BMP180;4594;50.994;7.126;2023-06-14T05:06:58;100591.00;;;23.30
9119;BMP180;4594;50.994;7.126;2023-06-14T05:09:24;100592.00;;;23.60
9119;BMP180;4594;50.994;7.126;2023-06-14T05:11:50;100593.00;;;23.90
9119;BMP180;4594;50.994;7.126;2023-06-14T05:14:16;100583.00;;;24.30
9119;BMP180;4594;50.994;7.126;2023-06-14T05:16:43;100594.00;;;24.50
9119;BMP180;4594;50.994;7.126;2023-06-14T05:19:09;100594.00;;;24.90
9119;BMP180;4594;50.994;7.126;2023-06-14T05:21:36;100586.00;;;25.30
9119;BMP180;4594;50.994;7.126;2023-06-14T05:24:03;100592.00;;;25.60
9119;BMP180;4594;50.994;7.126;2023-06-14T05:26:29;100600.00;;;25.90
9119;BMP180;4594;50.994;7.126;2023-06-14T05:28:56;100596.00;;;26.30
9119;BMP180;4594;50.994;7.126;2023-06-14T05:31:25;100598.00;;;26.60
9119;BMP180;4594;50.994;7.126;2023-06-14T05:33:51;100598.00;;;27.00
9119;BMP180;4594;50.994;7.126;2023-06-14T05:36:18;100594.00;;;27.30
9119;BMP180;4594;50.994;7.126;2023-06-14T05:38:45;100587.00;;;27.60
9119;BMP180;4594;50.994;7.126;2023-06-14T05:41:11;100599.00;;;28.00
9119;BMP180;4594;50.994;7.126;2023-06-14T05:43:36;100592.00;;;28.40
9119;BMP180;4594;50.994;7.126;2023-06-14T05:46:02;100595.00;;;28.90
9119;BMP180;4594;50.994;7.126;2023-06-14T05:48:29;100599.00;;;29.30
9119;BMP180;4594;50.994;7.126;2023-06-14T05:50:56;100606.00;;;29.70
9119;BMP180;4594;50.994;7.126;2023-06-14T05:53:21;100595.00;;;30.10
9119;BMP180;4594;50.994;7.126;2023-06-14T05:55:47;100606.00;;;30.40
9119;BMP180;4594;50.994;7.126;2023-06-14T05:58:13;100608.00;;;30.70
9119;BMP180;4594;50.994;7.126;2023-06-14T06:00:39;100612.00;;;31.00
9119;BMP180;4594;50.994;7.126;2023-06-14T06:03:05;100608.00;;;31.20
9119;BMP180;4594;50.994;7.126;2023-06-14T06:05:33;100605.00;;;31.50
9119;BMP180;4594;50.994;7.126;2023-06-14T06:07:59;100610.00;;;31.70
9119;BMP180;4594;50.994;7.126;2023-06-14T06:10:26;100614.00;;;31.90
9119;BMP180;4594;50.994;7.126;2023-06-14T06:12:51;100617.00;;;32.20
9119;BMP180;4594;50.994;7.126;2023-06-14T06:15:20;100615.00;;;32.40
9119;BMP180;4594;50.994;7.126;2023-06-14T06:17:45;100615.00;;;32.60
9119;BMP180;4594;50.994;7.126;2023-06-14T06:20:11;100618.00;;;32.80
9119;BMP180;4594;50.994;7.126;2023-06-14T06:22:38;100620.00;;;33.00
9119;BMP180;4594;50.994;7.126;2023-06-14T06:25:05;100618.00;;;33.20
9119;BMP180;4594;50.994;7.126;2023-06-14T06:27:32;100623.00;;;33.20
9119;BMP180;4594;50.994;7.126;2023-06-14T06:29:58;100624.00;;;33.40
9119;BMP180;4594;50.994;7.126;2023-06-14T06:32:24;100630.00;;;33.60
9119;BMP180;4594;50.994;7.126;2023-06-14T06:34:50;100627.00;;;33.80
9119;BMP180;4594;50.994;7.126;2023-06-14T06:37:17;100622.00;;;34.00
9119;BMP180;4594;50.994;7.126;2023-06-14T06:39:42;100645.00;;;34.30
9119;BMP180;4594;50.994;7.126;2023-06-14T06:42:09;100645.00;;;34.50
9119;BMP180;4594;50.994;7.126;2023-06-14T06:44:34;100641.00;;;34.60
9119;BMP180;4594;50.994;7.126;2023-06-14T06:47:00;100645.00;;;34.70
9119;BMP180;4594;50.994;7.126;2023-06-14T06:49:26;100646.00;;;34.90
9119;BMP180;4594;50.994;7.126;2023-06-14T06:52:01;100643.00;;;35.10
9119;BMP180;4594;50.994;7.126;2023-06-14T06:54:27;100658.00;;;35.20
9119;BMP180;4594;50.994;7.126;2023-06-14T06:56:53;100658.00;;;35.30
9119;BMP180;4594;50.994;7.126;2023-06-14T06:59:19;100664.00;;;35.20
9119;BMP180;4594;50.994;7.126;2023-06-14T07:01:45;100666.00;;;35.10
9119;BMP180;4594;50.994;7.126;2023-06-14T07:04:12;100668.00;;;35.20
9119;BMP180;4594;50.994;7.126;2023-06-14T07:06:37;100667.00;;;35.40
9119;BMP180;4594;50.994;7.126;2023-06-14T07:09:03;100670.00;;;35.60
9119;BMP180;4594;50.994;7.126;2023-06-14T07:11:32;100675.00;;;35.80
9119;BMP180;4594;50.994;7.126;2023-06-14T07:13:57;100667.00;;;36.10
9119;BMP180;4594;50.994;7.126;2023-06-14T07:16:23;100665.00;;;36.30
9119;BMP180;4594;50.994;7.126;2023-06-14T07:18:49;100664.00;;;36.50
9119;BMP180;4594;50.994;7.126;2023-06-14T07:21:14;100667.00;;;36.80
9119;BMP180;4594;50.994;7.126;2023-06-14T07:23:40;100664.00;;;37.00
9119;BMP180;4594;50.994;7.126;2023-06-14T07:26:06;100669.00;;;37.10
9119;BMP180;4594;50.994;7.126;2023-06-14T07:28:32;100660.00;;;37.40
9119;BMP180;4594;50.994;7.126;2023-06-14T07:30:57;100675.00;;;37.60
9119;BMP180;4594;50.994;7.126;2023-06-14T07:33:23;100693.00;;;37.90
9119;BMP180;4594;50.994;7.126;2023-06-14T07:35:49;100675.00;;;37.90
9119;BMP180;4594;50.994;7.126;2023-06-14T07:38:15;100691.00;;;38.10
9119;BMP180;4594;50.994;7.126;2023-06-14T07:40:41;100680.00;;;38.20
9119;BMP180;4594;50.994;7.126;2023-06-14T07:43:06;100679.00;;;38.30
9119;BMP180;4594;50.994;7.126;2023-06-14T07:45:32;100669.00;;;38.30
9119;BMP180;4594;50.994;7.126;2023-06-14T07:47:57;100664.00;;;38.40
9119;BMP180;4594;50.994;7.126;2023-06-14T07:50:23;100670.00;;;38.60
9119;BMP180;4594;50.994;7.126;2023-06-14T07:52:49;100673.00;;;38.80
9119;BMP180;4594;50.994;7.126;2023-06-14T07:55:15;100668.00;;;39.00
9119;BMP180;4594;50.994;7.126;2023-06-14T07:57:41;100667.00;;;39.10
9119;BMP180;4594;50.994;7.126;2023-06-14T08:00:08;100669.00;;;39.30
9119;BMP180;4594;50.994;7.126;2023-06-14T08:02:36;100669.00;;;39.40
9119;BMP180;4594;50.994;7.126;2023-06-14T08:05:02;100671.00;;;39.50
9119;BMP180;4594;50.994;7.126;2023-06-14T08:07:28;100679.00;;;39.50
9119;BMP180;4594;50.994;7.126;2023-06-14T08:09:54;100665.00;;;39.60
9119;BMP180;4594;50.994;7.126;2023-06-14T08:12:19;100664.00;;;39.70
9119;BMP180;4594;50.994;7.126;2023-06-14T08:14:45;100661.00;;;39.90
9119;BMP180;4594;50.994;7.126;2023-06-14T08:17:10;100660.00;;;40.20
9119;BMP180;4594;50.994;7.126;2023-06-14T08:19:36;100659.00;;;40.60
9119;BMP180;4594;50.994;7.126;2023-06-14T08:22:02;100668.00;;;40.80
9119;BMP180;4594;50.994;7.126;2023-06-14T08:24:29;100663.00;;;40.90
9119;BMP180;4594;50.994;7.126;2023-06-14T08:26:54;100671.00;;;41.00
9119;BMP180;4594;50.994;7.126;2023-06-14T08:29:22;100664.00;;;41.10
9119;BMP180;4594;50.994;7.126;2023-06-14T08:31:48;100664.00;;;41.40
9119;BMP180;4594;50.994;7.126;2023-06-14T08:34:13;100668.00;;;41.60
9119;BMP180;4594;50.994;7.126;2023-06-14T08:36:39;100665.00;;;41.80
9119;BMP180;4594;50.994;7.126;2023-06-14T08:39:05;100664.00;;;42.10
9119;BMP180;4594;50.994;7.126;2023-06-14T08:41:32;100673.00;;;42.30
9119;BMP180;4594;50.994;7.126;2023-06-14T08:43:58;100659.00;;;42.60
9119;BMP180;4594;50.994;7.126;2023-06-14T08:46:26;100654.00;;;42.90
9119;BMP180;4594;50.994;7.126;2023-06-14T08:48:55;100660.00;;;43.20
9119;BMP180;4594;50.994;7.126;2023-06-14T08:51:26;100668.00;;;43.60
9119;BMP180;4594;50.994;7.126;2023-06-14T08:53:59;100660.00;;;43.80
9119;BMP180;4594;50.994;7.126;2023-06-14T08:56:28;100672.00;;;43.60
9119;BMP180;4594;50.994;7.126;2023-06-14T08:58:56;100666.00;;;43.40
9119;BMP180;4594;50.994;7.126;2023-06-14T09:01:23;100660.00;;;43.30
9119;BMP180;4594;50.994;7.126;2023-06-14T09:03:50;100661.00;;;43.20
9119;BMP180;4594;50.994;7.126;2023-06-14T09:06:17;100655.00;;;43.10
9119;BMP180;4594;50.994;7.126;2023-06-14T09:08:46;100669.00;;;43.20
9119;BMP180;4594;50.994;7.126;2023-06-14T09:11:17;100657.00;;;43.40
9119;BMP180;4594;50.994;7.126;2023-06-14T09:13:48;100661.00;;;43.60
9119;BMP180;4594;50.994;7.126;2023-06-14T09:16:14;100662.00;;;43.80
9119;BMP180;4594;50.994;7.126;2023-06-14T09:18:46;100663.00;;;44.00
9119;BMP180;4594;50.994;7.126;2023-06-14T09:21:15;100656.00;;;44.20
9119;BMP180;4594;50.994;7.126;2023-06-14T09:23:44;100666.00;;;44.40
9119;BMP180;4594;50.994;7.126;2023-06-14T09:26:19;100648.00;;;44.60
9119;BMP180;4594;50.994;7.126;2023-06-14T09:28:47;100664.00;;;45.00
9119;BMP180;4594;50.994;7.126;2023-06-14T09:31:22;100664.00;;;45.30
9119;BMP180;4594;50.994;7.126;2023-06-14T09:33:50;100682.00;;;45.20
9119;BMP180;4594;50.994;7.126;2023-06-14T09:36:23;100670.00;;;44.90
9119;BMP180;4594;50.994;7.126;2023-06-14T09:38:58;100688.00;;;44.90
9119;BMP180;4594;50.994;7.126;2023-06-14T09:41:40;100679.00;;;44.90
9119;BMP180;4594;50.994;7.126;2023-06-14T09:44:08;100678.00;;;44.90
9119;BMP180;4594;50.994;7.126;2023-06-14T09:46:35;100676.00;;;44.80
9119;BMP180;4594;50.994;7.126;2023-06-14T09:49:03;100679.00;;;44.80
9119;BMP180;4594;50.994;7.126;2023-06-14T09:51:30;100680.00;;;44.80
9119;BMP180;4594;50.994;7.126;2023-06-14T09:54:03;100687.00;;;44.80
9119;BMP180;4594;50.994;7.126;2023-06-14T09:56:37;100683.00;;;45.00
9119;BMP180;4594;50.994;7.126;2023-06-14T09:59:05;100677.00;;;45.10
9119;BMP180;4594;50.994;7.126;2023-06-14T10:01:34;100683.00;;;45.30
9119;BMP180;4594;50.994;7.126;2023-06-14T10:04:05;100679.00;;;45.40
9119;BMP180;4594;50.994;7.126;2023-06-14T10:06:36;100676.00;;;45.50
9119;BMP180;4594;50.994;7.126;2023-06-14T10:09:04;100676.00;;;45.70
9119;BMP180;4594;50.994;7.126;2023-06-14T10:11:35;100670.00;;;45.90
9119;BMP180;4594;50.994;7.126;2023-06-14T10:14:06;100682.00;;;46.20
9119;BMP180;4594;50.994;7.126;2023-06-14T10:19:22;100675.00;;;46.80
9119;BMP180;4594;50.994;7.126;2023-06-14T10:22:10;100671.00;;;46.90
9119;BMP180;4594;50.994;7.126;2023-06-14T10:24:44;100676.00;;;47.20
9119;BMP180;4594;50.994;7.126;2023-06-14T10:27:13;100670.00;;;47.30
9119;BMP180;4594;50.994;7.126;2023-06-14T10:32:21;100656.00;;;47.50
9119;BMP180;4594;50.994;7.126;2023-06-14T10:35:04;100667.00;;;47.70
9119;BMP180;4594;50.994;7.126;2023-06-14T10:37:31;100656.00;;;47.70
9119;BMP180;4594;50.994;7.126;2023-06-14T10:39:56;100665.00;;;47.70
9119;BMP180;4594;50.994;7.126;2023-06-14T10:42:36;100667.00;;;47.50
9119;BMP180;4594;50.994;7.126;2023-06-14T10:45:02;100665.00;;;47.30
9119;BMP180;4594;50.994;7.126;2023-06-14T10:47:33;100671.00;;;47.30
9119;BMP180;4594;50.994;7.126;2023-06-14T10:50:10;100669.00;;;47.20
9119;BMP180;4594;50.994;7.126;2023-06-14T10:52:42;100676.00;;;47.20
9119;BMP180;4594;50.994;7.126;2023-06-14T10:55:17;100669.00;;;47.10
9119;BMP180;4594;50.994;7.126;2023-06-14T10:57:51;100674.00;;;47.10
9119;BMP180;4594;50.994;7.126;2023-06-14T11:00:20;100658.00;;;47.00
9119;BMP180;4594;50.994;7.126;2023-06-14T11:05:57;100660.00;;;46.30
9119;BMP180;4594;50.994;7.126;2023-06-14T11:11:32;100676.00;;;46.40
9119;BMP180;4594;50.994;7.126;2023-06-14T11:14:01;100659.00;;;46.10
9119;BMP180;4594;50.994;7.126;2023-06-14T11:16:28;100659.00;;;46.10
9119;BMP180;4594;50.994;7.126;2023-06-14T11:18:55;100663.00;;;46.00
9119;BMP180;4594;50.994;7.126;2023-06-14T11:21:20;100660.00;;;46.00
9119;BMP180;4594;50.994;7.126;2023-06-14T11:23:53;100668.00;;;45.90
9119;BMP180;4594;50.994;7.126;2023-06-14T11:26:31;100664.00;;;45.70
9119;BMP180;4594;50.994;7.126;2023-06-14T11:29:00;100665.00;;;45.60
9119;BMP180;4594;50.994;7.126;2023-06-14T11:31:27;100657.00;;;45.50
9119;BMP180;4594;50.994;7.126;2023-06-14T11:33:55;100660.00;;;45.20
9119;BMP180;4594;50.994;7.126;2023-06-14T11:36:23;100673.00;;;44.10
9119;BMP180;4594;50.994;7.126;2023-06-14T11:38:49;100660.00;;;42.90
9119;BMP180;4594;50.994;7.126;2023-06-14T11:41:14;100678.00;;;41.80
9119;BMP180;4594;50.994;7.126;2023-06-14T11:43:40;100673.00;;;40.90
9119;BMP180;4594;50.994;7.126;2023-06-14T11:46:13;100675.00;;;40.00
9119;BMP180;4594;50.994;7.126;2023-06-14T11:48:43;100678.00;;;39.30
9119;BMP180;4594;50.994;7.126;2023-06-14T11:51:09;100679.00;;;38.50
9119;BMP180;4594;50.994;7.126;2023-06-14T11:53:35;100674.00;;;37.80
9119;BMP180;4594;50.994;7.126;2023-06-14T11:56:01;100673.00;;;37.30
9119;BMP180;4594;50.994;7.126;2023-06-14T11:58:29;100674.00;;;36.70
9119;BMP180;4594;50.994;7.126;2023-06-14T12:00:55;100672.00;;;36.20
9119;BMP180;4594;50.994;7.126;2023-06-14T12:03:25;100673.00;;;35.80
9119;BMP180;4594;50.994;7.126;2023-06-14T12:06:05;100683.00;;;35.40
9119;BMP180;4594;50.994;7.126;2023-06-14T12:08:37;100673.00;;;35.00
9119;BMP180;4594;50.994;7.126;2023-06-14T12:11:12;100668.00;;;34.60
9119;BMP180;4594;50.994;7.126;2023-06-14T12:13:39;100668.00;;;34.30
9119;BMP180;4594;50.994;7.126;2023-06-14T12:16:08;100675.00;;;34.00
9119;BMP180;4594;50.994;7.126;2023-06-14T12:18:37;100666.00;;;33.80
9119;BMP180;4594;50.994;7.126;2023-06-14T12:21:05;100677.00;;;33.60
9119;BMP180;4594;50.994;7.126;2023-06-14T12:23:49;100682.00;;;33.10
9119;BMP180;4594;50.994;7.126;2023-06-14T12:26:17;100683.00;;;32.70
9119;BMP180;4594;50.994;7.126;2023-06-14T12:28:46;100682.00;;;32.30
9119;BMP180;4594;50.994;7.126;2023-06-14T12:31:14;100670.00;;;32.10
9119;BMP180;4594;50.994;7.126;2023-06-14T12:33:41;100670.00;;;32.00
9119;BMP180;4594;50.994;7.126;2023-06-14T12:36:09;100669.00;;;31.80
9119;BMP180;4594;50.994;7.126;2023-06-14T12:38:36;100673.00;;;31.70
9119;BMP180;4594;50.994;7.126;2023-06-14T12:41:03;100678.00;;;31.60
9119;BMP180;4594;50.994;7.126;2023-06-14T12:43:29;100673.00;;;31.50
9119;BMP180;4594;50.994;7.126;2023-06-14T12:45:55;100681.00;;;31.30
9119;BMP180;4594;50.994;7.126;2023-06-14T12:48:21;100684.00;;;31.20
9119;BMP180;4594;50.994;7.126;2023-06-14T12:50:47;100674.00;;;31.00
9119;BMP180;4594;50.994;7.126;2023-06-14T12:53:13;100675.00;;;30.90
9119;BMP180;4594;50.994;7.126;2023-06-14T12:55:39;100674.00;;;30.80
9119;BMP180;4594;50.994;7.126;2023-06-14T12:58:04;100690.00;;;30.60
9119;BMP180;4594;50.994;7.126;2023-06-14T13:00:30;100693.00;;;30.60
9119;BMP180;4594;50.994;7.126;2023-06-14T13:02:57;100687.00;;;30.50
9119;BMP180;4594;50.994;7.126;2023-06-14T13:05:23;100689.00;;;30.40
9119;BMP180;4594;50.994;7.126;2023-06-14T13:07:50;100676.00;;;30.30
9119;BMP180;4594;50.994;7.126;2023-06-14T13:10:16;100685.00;;;30.30
9119;BMP180;4594;50.994;7.126;2023-06-14T13:12:43;100697.00;;;30.30
9119;BMP180;4594;50.994;7.126;2023-06-14T13:15:09;100680.00;;;30.20
9119;BMP180;4594;50.994;7.126;2023-06-14T13:17:36;100669.00;;;30.20
9119;BMP180;4594;50.994;7.126;2023-06-14T13:20:08;100678.00;;;30.20
9119;BMP180;4594;50.994;7.126;2023-06-14T13:22:35;100693.00;;;30.20
9119;BMP180;4594;50.994;7.126;2023-06-14T13:25:03;100681.00;;;30.10
9119;BMP180;4594;50.994;7.126;2023-06-14T13:27:29;100685.00;;;30.10
9119;BMP180;4594;50.994;7.126;2023-06-14T13:29:55;100697.00;;;30.10
9119;BMP180;4594;50.994;7.126;2023-06-14T13:32:22;100703.00;;;30.10
9119;BMP180;4594;50.994;7.126;2023-06-14T13:34:48;100697.00;;;30.00
9119;BMP180;4594;50.994;7.126;2023-06-14T13:37:14;100687.00;;;29.90
9119;BMP180;4594;50.994;7.126;2023-06-14T13:39:40;100692.00;;;29.80
9119;BMP180;4594;50.994;7.126;2023-06-14T13:42:06;100688.00;;;29.80
9119;BMP180;4594;50.994;7.126;2023-06-14T13:44:32;100686.00;;;29.90
9119;BMP180;4594;50.994;7.126;2023-06-14T13:46:58;100689.00;;;29.90
9119;BMP180;4594;50.994;7.126;2023-06-14T13:49:23;100688.00;;;30.00
9119;BMP180;4594;50.994;7.126;2023-06-14T13:51:49;100702.00;;;30.10
9119;BMP180;4594;50.994;7.126;2023-06-14T13:54:19;100684.00;;;30.20
9119;BMP180;4594;50.994;7.126;2023-06-14T13:56:45;100689.00;;;30.20
9119;BMP180;4594;50.994;7.126;2023-06-14T13:59:11;100693.00;;;30.10
9119;BMP180;4594;50.994;7.126;2023-06-14T14:01:37;100687.00;;;30.00
9119;BMP180;4594;50.994;7.126;2023-06-14T14:04:03;100688.00;;;30.00
9119;BMP180;4594;50.994;7.126;2023-06-14T14:06:30;100692.00;;;29.90
9119;BMP180;4594;50.994;7.126;2023-06-14T14:08:57;100690.00;;;29.80
9119;BMP180;4594;50.994;7.126;2023-06-14T14:11:23;100701.00;;;29.70
9119;BMP180;4594;50.994;7.126;2023-06-14T14:13:48;100693.00;;;29.70
9119;BMP180;4594;50.994;7.126;2023-06-14T14:16:15;100680.00;;;29.70
9119;BMP180;4594;50.994;7.126;2023-06-14T14:18:41;100675.00;;;29.70
9119;BMP180;4594;50.994;7.126;2023-06-14T14:21:07;100684.00;;;29.60
9119;BMP180;4594;50.994;7.126;2023-06-14T14:23:32;100691.00;;;29.60
9119;BMP180;4594;50.994;7.126;2023-06-14T14:25:58;100684.00;;;29.60
9119;BMP180;4594;50.994;7.126;2023-06-14T14:28:26;100681.00;;;29.70
9119;BMP180;4594;50.994;7.126;2023-06-14T14:30:52;100689.00;;;29.80
9119;BMP180;4594;50.994;7.126;2023-06-14T14:33:19;100681.00;;;29.80
9119;BMP180;4594;50.994;7.126;2023-06-14T14:35:45;100688.00;;;29.90
9119;BMP180;4594;50.994;7.126;2023-06-14T14:38:12;100691.00;;;29.90